createdAt,value
2022-11-16T00:00:24.458Z,26.97
2022-11-16T00:02:54.463Z,26.95
2022-11-16T00:05:28.363Z,26.94
2022-11-16T00:08:00.042Z,26.93
2022-11-16T00:10:30.590Z,26.93
2022-11-16T00:13:02.614Z,26.93
2022-11-16T00:15:32.642Z,26.92
2022-11-16T00:18:02.657Z,26.92
2022-11-16T00:20:32.435Z,26.90
2022-11-16T00:23:02.336Z,26.90
2022-11-16T00:25:37.195Z,26.86
2022-11-16T00:28:09.331Z,26.84
2022-11-16T00:30:39.934Z,26.81
2022-11-16T00:33:15.349Z,26.78
2022-11-16T00:35:46.756Z,26.74
2022-11-16T00:38:17.188Z,26.72
2022-11-16T00:40:48.272Z,26.68
2022-11-16T00:43:20.800Z,26.66
2022-11-16T00:45:51.837Z,26.65
2022-11-16T00:48:22.691Z,26.64
2022-11-16T00:50:52.619Z,26.64
2022-11-16T00:53:24.514Z,26.64
2022-11-16T00:55:55.131Z,26.63
2022-11-16T00:58:27.757Z,26.64
2022-11-16T01:00:58.221Z,26.60
2022-11-16T01:03:28.875Z,26.59
2022-11-16T01:06:04.679Z,26.58
2022-11-16T01:08:36.342Z,26.58
2022-11-16T01:11:21.020Z,26.57
2022-11-16T01:13:53.352Z,26.55
2022-11-16T01:16:25.721Z,26.55
2022-11-16T01:18:58.084Z,26.53
2022-11-16T01:21:29.127Z,26.52
2022-11-16T01:24:00.254Z,26.51
2022-11-16T01:26:30.539Z,26.51
2022-11-16T01:29:03.826Z,26.52
2022-11-16T01:31:34.893Z,26.54
2022-11-16T01:34:05.481Z,26.53
2022-11-16T01:36:37.113Z,26.51
2022-11-16T01:39:09.090Z,26.48
2022-11-16T01:41:39.365Z,26.46
2022-11-16T01:44:59.662Z,26.43
2022-11-16T01:47:31.394Z,26.42
2022-11-16T01:50:10.720Z,26.43
2022-11-16T01:52:47.364Z,26.43
2022-11-16T01:55:19.110Z,26.43
2022-11-16T01:57:54.333Z,26.44
2022-11-16T02:00:26.780Z,26.45
2022-11-16T02:02:57.106Z,26.46
2022-11-16T02:05:45.286Z,26.44
2022-11-16T02:08:59.154Z,26.43
2022-11-16T02:12:01.568Z,26.39
2022-11-16T02:14:55.460Z,26.36
2022-11-16T02:17:43.866Z,26.30
2022-11-16T02:20:50.054Z,26.26
2022-11-16T02:24:28.544Z,26.19
2022-11-16T02:27:49.814Z,26.11
2022-11-16T02:30:24.641Z,26.07
2022-11-16T02:33:02.191Z,26.06
2022-11-16T02:35:39.548Z,26.06
2022-11-16T02:38:19.096Z,26.06
2022-11-16T02:40:56.417Z,26.06
2022-11-16T02:43:33.475Z,26.06
2022-11-16T02:46:11.412Z,26.08
2022-11-16T02:48:49.163Z,26.09
2022-11-16T02:51:22.447Z,26.09
2022-11-16T02:54:09.825Z,26.09
2022-11-16T02:56:52.921Z,26.08
2022-11-16T02:59:24.315Z,26.07
2022-11-16T03:02:09.063Z,26.08
2022-11-16T03:04:46.626Z,26.06
2022-11-16T03:07:23.186Z,26.06
2022-11-16T03:09:57.570Z,26.06
2022-11-16T03:12:32.688Z,26.05
2022-11-16T03:15:07.667Z,26.02
2022-11-16T03:17:46.358Z,26.01
2022-11-16T03:20:21.155Z,26.01
2022-11-16T03:22:57.182Z,25.99
2022-11-16T03:25:34.581Z,25.98
2022-11-16T03:28:12.834Z,25.96
2022-11-16T03:30:51.712Z,25.96
2022-11-16T03:33:31.740Z,25.95
2022-11-16T03:36:11.620Z,25.94
2022-11-16T03:38:44.308Z,25.94
2022-11-16T03:41:17.678Z,25.91
2022-11-16T03:43:51.770Z,25.88
2022-11-16T03:46:22.812Z,25.86
2022-11-16T03:49:01.278Z,25.85
2022-11-16T03:51:32.291Z,25.83
2022-11-16T03:54:02.776Z,25.82
2022-11-16T03:56:33.810Z,25.79
2022-11-16T03:59:04.610Z,25.76
2022-11-16T04:01:34.735Z,25.73
2022-11-16T04:04:07.020Z,25.71
2022-11-16T04:06:50.676Z,25.69
2022-11-16T04:09:37.468Z,25.68
2022-11-16T04:12:26.944Z,25.66
2022-11-16T04:15:13.907Z,25.65
2022-11-16T04:18:00.833Z,25.64
2022-11-16T04:20:49.140Z,25.63
2022-11-16T04:23:36.688Z,25.61
2022-11-16T04:26:11.247Z,25.58
2022-11-16T04:28:40.967Z,25.57
2022-11-16T04:31:28.105Z,25.57
2022-11-16T04:34:15.069Z,25.55
2022-11-16T04:37:03.803Z,25.54
2022-11-16T04:39:33.879Z,25.54
2022-11-16T04:42:22.664Z,25.52
2022-11-16T04:45:09.297Z,25.53
2022-11-16T04:47:40.109Z,25.52
2022-11-16T04:50:11.349Z,25.54
2022-11-16T04:52:44.006Z,25.59
2022-11-16T04:55:15.813Z,25.70
2022-11-16T04:57:46.598Z,25.81
2022-11-16T05:00:18.024Z,25.96
2022-11-16T05:02:48.553Z,26.10
2022-11-16T05:05:19.709Z,26.26
2022-11-16T05:07:51.698Z,26.44
2022-11-16T05:10:21.964Z,26.59
2022-11-16T05:12:52.717Z,26.72
2022-11-16T05:15:22.690Z,26.85
2022-11-16T05:17:56.271Z,26.95
2022-11-16T05:20:43.339Z,27.05
2022-11-16T05:23:28.636Z,27.13
2022-11-16T05:26:06.449Z,27.18
2022-11-16T05:28:37.219Z,27.22
2022-11-16T05:31:07.873Z,27.29
2022-11-16T05:33:38.508Z,27.35
2022-11-16T05:36:10.609Z,27.47
2022-11-16T05:38:43.134Z,27.58
2022-11-16T05:41:13.840Z,27.72
2022-11-16T05:43:44.309Z,27.86
2022-11-16T05:46:14.363Z,28.03
2022-11-16T05:48:45.168Z,28.21
2022-11-16T05:51:15.669Z,28.39
2022-11-16T05:53:49.841Z,28.56
2022-11-16T05:56:20.800Z,28.68
2022-11-16T05:58:51.251Z,28.83
2022-11-16T06:01:22.044Z,29.00
2022-11-16T06:03:52.150Z,29.16
2022-11-16T06:06:22.579Z,29.32
2022-11-16T06:08:55.249Z,29.44
2022-11-16T06:11:28.247Z,29.54
2022-11-16T06:14:01.032Z,29.70
2022-11-16T06:16:31.781Z,29.85
2022-11-16T06:19:03.600Z,29.99
2022-11-16T06:21:34.142Z,30.13
2022-11-16T06:24:09.407Z,30.27
2022-11-16T06:26:39.738Z,30.36
2022-11-16T06:29:10.456Z,30.42
2022-11-16T06:31:40.915Z,30.53
2022-11-16T06:34:11.837Z,30.66
2022-11-16T06:36:42.179Z,30.81
2022-11-16T06:39:16.616Z,30.95
2022-11-16T06:41:47.160Z,31.05
2022-11-16T06:44:17.464Z,31.17
2022-11-16T06:46:47.185Z,31.29
2022-11-16T06:49:17.800Z,31.40
2022-11-16T06:51:48.035Z,31.50
2022-11-16T06:54:20.550Z,31.60
2022-11-16T06:56:51.106Z,31.71
2022-11-16T06:59:21.387Z,31.84
2022-11-16T07:01:52.469Z,31.96
2022-11-16T07:04:23.336Z,32.06
2022-11-16T07:06:54.189Z,32.12
2022-11-16T07:09:27.558Z,32.17
2022-11-16T07:11:58.490Z,32.21
2022-11-16T07:14:28.658Z,32.22
2022-11-16T07:17:01.907Z,32.20
2022-11-16T07:19:35.581Z,32.10
2022-11-16T07:22:06.319Z,31.98
2022-11-16T07:24:38.945Z,31.86
2022-11-16T07:27:11.283Z,31.68
2022-11-16T07:29:44.635Z,31.53
2022-11-16T07:32:15.156Z,31.40
2022-11-16T07:34:45.680Z,31.24
2022-11-16T07:37:16.118Z,31.09
2022-11-16T07:39:49.204Z,30.92
2022-11-16T07:42:19.680Z,30.78
2022-11-16T07:44:50.630Z,30.64
2022-11-16T07:47:21.058Z,30.52
2022-11-16T07:49:51.736Z,30.42
2022-11-16T07:52:21.957Z,30.30
2022-11-16T07:54:55.438Z,30.18
2022-11-16T07:57:25.673Z,30.06
2022-11-16T07:59:56.411Z,29.95
2022-11-16T08:02:26.310Z,29.87
2022-11-16T08:04:57.061Z,29.78
2022-11-16T08:07:27.597Z,29.70
2022-11-16T08:10:00.243Z,29.63
2022-11-16T08:12:30.305Z,29.61
2022-11-16T08:15:00.937Z,29.60
2022-11-16T08:17:31.028Z,29.62
2022-11-16T08:20:01.941Z,29.64
2022-11-16T08:22:32.998Z,29.68
2022-11-16T08:25:05.758Z,29.71
2022-11-16T08:27:36.721Z,29.73
2022-11-16T08:30:10.693Z,29.74
2022-11-16T08:32:42.535Z,29.70
2022-11-16T08:35:13.417Z,29.69
2022-11-16T08:37:44.032Z,29.71
2022-11-16T08:40:17.631Z,29.72
2022-11-16T08:42:48.004Z,29.77
2022-11-16T08:45:18.847Z,29.78
2022-11-16T08:47:49.653Z,29.82
2022-11-16T08:50:19.963Z,29.89
2022-11-16T08:52:50.597Z,29.96
2022-11-16T08:55:23.860Z,30.05
2022-11-16T08:57:54.710Z,30.10
2022-11-16T09:00:26.905Z,30.16
2022-11-16T09:02:57.480Z,30.23
2022-11-16T09:05:27.669Z,30.29
2022-11-16T09:07:58.194Z,30.33
2022-11-16T09:10:30.939Z,30.40
2022-11-16T09:13:00.825Z,30.44
2022-11-16T09:15:32.158Z,30.46
2022-11-16T09:18:02.005Z,30.45
2022-11-16T09:20:32.699Z,30.46
2022-11-16T09:23:03.082Z,30.46
2022-11-16T09:25:34.886Z,30.48
2022-11-16T09:28:06.978Z,30.47
2022-11-16T09:30:38.634Z,30.49
2022-11-16T09:33:09.657Z,30.51
2022-11-16T09:35:40.353Z,30.51
2022-11-16T09:38:11.870Z,30.50
2022-11-16T09:40:50.377Z,30.50
2022-11-16T09:43:44.297Z,30.48
2022-11-16T09:46:28.294Z,30.47
2022-11-16T09:49:03.570Z,30.47
2022-11-16T09:51:39.259Z,30.46
2022-11-16T09:54:17.436Z,30.44
2022-11-16T09:56:56.009Z,30.42
2022-11-16T09:59:31.238Z,30.37
2022-11-16T10:02:17.752Z,30.34
2022-11-16T10:04:59.373Z,30.29
2022-11-16T10:07:36.917Z,30.23
2022-11-16T10:10:08.782Z,30.16
2022-11-16T10:12:48.352Z,30.13
2022-11-16T10:15:57.910Z,30.07
2022-11-16T10:18:55.980Z,30.03
2022-11-16T10:21:54.517Z,29.93
2022-11-16T10:24:36.746Z,29.86
2022-11-16T10:27:43.039Z,29.83
2022-11-16T10:30:20.918Z,29.79
2022-11-16T10:32:59.963Z,29.79
2022-11-16T10:35:40.129Z,29.76
2022-11-16T10:38:17.737Z,29.71
2022-11-16T10:40:57.490Z,29.67
2022-11-16T10:43:33.462Z,29.61
2022-11-16T10:46:20.652Z,29.56
2022-11-16T10:49:07.787Z,29.53
2022-11-16T10:51:37.979Z,29.51
2022-11-16T10:54:16.581Z,29.49
2022-11-16T10:56:52.376Z,29.47
2022-11-16T10:59:23.348Z,29.45
2022-11-16T11:01:58.061Z,29.46
2022-11-16T11:04:30.798Z,29.46
2022-11-16T11:07:03.483Z,29.45
2022-11-16T11:09:37.249Z,29.47
2022-11-16T11:12:34.891Z,29.46
2022-11-16T11:15:26.433Z,29.42
2022-11-16T11:18:22.500Z,29.37
2022-11-16T11:21:07.545Z,29.36
2022-11-16T11:23:53.646Z,29.35
2022-11-16T11:26:40.909Z,29.31
2022-11-16T11:29:32.444Z,29.28
2022-11-16T11:32:09.016Z,29.27
2022-11-16T11:34:46.027Z,29.27
2022-11-16T11:37:20.411Z,29.23
2022-11-16T11:39:50.862Z,29.21
2022-11-16T11:42:26.883Z,29.22
2022-11-16T11:45:01.850Z,29.19
2022-11-16T11:48:01.923Z,29.18
2022-11-16T11:50:58.186Z,29.14
2022-11-16T11:53:46.531Z,29.14
2022-11-16T11:56:18.240Z,29.14
2022-11-16T11:58:52.053Z,29.14
2022-11-16T12:02:14.159Z,29.10
2022-11-16T12:05:37.417Z,29.06
2022-11-16T12:08:38.033Z,29.07
2022-11-16T12:11:19.493Z,29.06
2022-11-16T12:14:15.099Z,29.05
2022-11-16T12:17:00.655Z,29.04
2022-11-16T12:20:04.115Z,29.03
2022-11-16T12:23:11.065Z,29.03
2022-11-16T12:25:53.061Z,29.03
2022-11-16T12:28:50.832Z,29.05
2022-11-16T12:31:48.707Z,29.04
2022-11-16T12:34:35.779Z,29.04
2022-11-16T12:37:18.866Z,29.05
2022-11-16T12:40:09.984Z,29.06
2022-11-16T12:42:54.088Z,29.06
2022-11-16T12:45:48.938Z,29.06
2022-11-16T12:49:03.029Z,29.04
2022-11-16T12:51:56.123Z,29.01
2022-11-16T12:55:25.389Z,29.01
2022-11-16T12:58:13.308Z,28.99
2022-11-16T13:01:04.793Z,28.97
2022-11-16T13:03:44.111Z,28.97
2022-11-16T13:06:22.594Z,28.98
2022-11-16T13:09:06.597Z,28.95
2022-11-16T13:11:42.902Z,28.93
2022-11-16T13:14:21.453Z,28.91
2022-11-16T13:16:54.034Z,28.89
2022-11-16T13:19:25.041Z,28.87
2022-11-16T13:22:05.173Z,28.85
2022-11-16T13:24:56.225Z,28.82
2022-11-16T13:27:40.202Z,28.78
2022-11-16T13:30:22.595Z,28.75
2022-11-16T13:33:21.408Z,28.74
2022-11-16T13:35:52.140Z,28.72
2022-11-16T13:38:54.251Z,28.73
2022-11-16T13:41:34.725Z,28.73
2022-11-16T13:44:08.210Z,28.72
2022-11-16T13:47:04.864Z,28.72
2022-11-16T13:49:41.294Z,28.71
2022-11-16T13:52:23.580Z,28.69
2022-11-16T13:54:57.315Z,28.70
2022-11-16T13:57:30.904Z,28.71
2022-11-16T14:00:14.523Z,28.71
2022-11-16T14:02:47.817Z,28.71
2022-11-16T14:05:40.274Z,28.67
2022-11-16T14:08:52.115Z,28.59
2022-11-16T14:11:38.363Z,28.56
2022-11-16T14:14:13.209Z,28.54
2022-11-16T14:16:52.956Z,28.52
2022-11-16T14:19:58.607Z,28.48
2022-11-16T14:22:53.309Z,28.47
2022-11-16T14:25:44.964Z,28.46
2022-11-16T14:28:58.840Z,28.44
2022-11-16T14:31:33.140Z,28.43
2022-11-16T14:34:04.516Z,28.42
2022-11-16T14:36:44.314Z,28.40
2022-11-16T14:39:38.136Z,28.37
2022-11-16T14:42:20.138Z,28.36
2022-11-16T14:44:52.130Z,28.35
2022-11-16T14:47:28.541Z,28.36
2022-11-16T14:49:59.299Z,28.35
2022-11-16T14:52:42.036Z,28.33
2022-11-16T14:55:21.025Z,28.31
2022-11-16T14:57:51.257Z,28.29
2022-11-16T15:00:27.306Z,28.26
2022-11-16T15:03:02.822Z,28.22
2022-11-16T15:05:39.667Z,28.20
2022-11-16T15:08:23.625Z,28.16
2022-11-16T15:10:54.540Z,28.12
2022-11-16T15:13:27.643Z,28.08
2022-11-16T15:16:13.702Z,28.04
2022-11-16T15:18:44.380Z,28.02
2022-11-16T15:21:25.309Z,28.02
2022-11-16T15:26:48.371Z,27.95
2022-11-16T15:29:22.346Z,27.94
2022-11-16T15:31:53.778Z,27.92
2022-11-16T15:34:23.852Z,27.91
2022-11-16T15:36:54.424Z,27.89
2022-11-16T15:39:38.589Z,27.86
2022-11-16T15:42:12.118Z,27.83
2022-11-16T15:44:43.083Z,27.82
2022-11-16T15:47:16.648Z,27.80
2022-11-16T15:49:53.478Z,27.78
2022-11-16T15:52:47.543Z,27.75
2022-11-16T15:55:36.588Z,27.73
2022-11-16T15:58:26.177Z,27.72
2022-11-16T16:00:57.352Z,27.72
2022-11-16T16:03:33.487Z,27.73
2022-11-16T16:06:06.273Z,27.73
2022-11-16T16:08:39.989Z,27.73
2022-11-16T16:11:29.232Z,27.72
2022-11-16T16:14:05.027Z,27.72
2022-11-16T16:16:37.857Z,27.72
2022-11-16T16:19:32.846Z,27.71
2022-11-16T16:22:03.687Z,27.69
2022-11-16T16:24:45.002Z,27.69
2022-11-16T16:27:20.238Z,27.68
2022-11-16T16:29:52.475Z,27.68
2022-11-16T16:32:28.597Z,27.68
2022-11-16T16:35:01.414Z,27.67
2022-11-16T16:37:34.442Z,27.69
2022-11-16T16:40:05.767Z,27.68
2022-11-16T16:42:37.946Z,27.68
2022-11-16T16:45:14.865Z,27.68
2022-11-16T16:47:45.291Z,27.64
2022-11-16T16:50:15.367Z,27.63
2022-11-16T16:52:46.698Z,27.60
2022-11-16T16:55:17.437Z,27.60
2022-11-16T16:57:50.229Z,27.62
2022-11-16T17:00:21.757Z,27.58
2022-11-16T17:02:53.380Z,27.52
2022-11-16T17:05:24.070Z,27.50
2022-11-16T17:07:57.416Z,27.49
2022-11-16T17:10:27.583Z,27.48
2022-11-16T17:12:59.731Z,27.49
2022-11-16T17:15:30.271Z,27.50
2022-11-16T17:18:02.281Z,27.52
2022-11-16T17:20:32.252Z,27.52
2022-11-16T17:23:02.304Z,27.54
2022-11-16T17:25:33.595Z,27.53
2022-11-16T17:28:06.954Z,27.53
2022-11-16T17:30:37.684Z,27.49
2022-11-16T17:33:08.427Z,27.44
2022-11-16T17:35:38.939Z,27.37
2022-11-16T17:38:10.159Z,27.31
2022-11-16T17:40:40.697Z,27.25
2022-11-16T17:43:12.622Z,27.22
2022-11-16T17:45:42.372Z,27.18
2022-11-16T17:48:13.360Z,27.17
2022-11-16T17:50:50.458Z,27.18
2022-11-16T17:53:21.304Z,27.19
2022-11-16T17:55:51.831Z,27.19
2022-11-16T17:58:24.614Z,27.19
2022-11-16T18:00:55.229Z,27.15
2022-11-16T18:03:27.553Z,27.08
2022-11-16T18:06:05.864Z,27.01
2022-11-16T18:08:37.662Z,26.96
2022-11-16T18:11:10.639Z,26.91
2022-11-16T18:13:43.898Z,26.86
2022-11-16T18:16:17.332Z,26.80
2022-11-16T18:18:49.672Z,26.77
2022-11-16T18:21:20.948Z,26.74
2022-11-16T18:23:52.136Z,26.71
2022-11-16T18:26:26.493Z,26.72
2022-11-16T18:28:58.922Z,26.70
2022-11-16T18:31:30.150Z,26.67
2022-11-16T18:34:00.935Z,26.68
2022-11-16T18:36:30.990Z,26.69
2022-11-16T18:39:01.770Z,26.69
2022-11-16T18:41:33.619Z,26.71
2022-11-16T18:44:06.772Z,26.68
2022-11-16T18:46:37.328Z,26.66
2022-11-16T18:49:08.019Z,26.63
2022-11-16T18:51:38.244Z,26.59
2022-11-16T18:54:08.968Z,26.56
2022-11-16T18:56:39.620Z,26.54
2022-11-16T18:59:12.292Z,26.51
2022-11-16T19:01:43.540Z,26.46
2022-11-16T19:04:14.821Z,26.43
2022-11-16T19:06:45.395Z,26.42
2022-11-16T19:09:15.950Z,26.41
2022-11-16T19:11:46.143Z,26.42
2022-11-16T19:14:18.710Z,26.39
2022-11-16T19:16:53.991Z,26.37
2022-11-16T19:19:28.097Z,26.35
2022-11-16T19:21:58.844Z,26.32
2022-11-16T19:24:29.259Z,26.29
2022-11-16T19:26:59.637Z,26.26
2022-11-16T19:29:32.126Z,26.22
2022-11-16T19:32:02.548Z,26.16
2022-11-16T19:34:33.534Z,26.12
2022-11-16T19:37:03.289Z,26.10
2022-11-16T19:39:34.056Z,26.06
2022-11-16T19:42:04.078Z,26.04
2022-11-16T19:44:36.675Z,26.03
2022-11-16T19:47:32.403Z,26.02
2022-11-16T19:51:06.628Z,26.00
2022-11-16T19:55:05.501Z,25.96
2022-11-16T19:58:45.692Z,25.93
2022-11-16T20:02:39.758Z,25.92
2022-11-16T20:06:22.108Z,25.93
2022-11-16T20:10:04.349Z,25.89
2022-11-16T20:13:46.425Z,25.84
2022-11-16T20:17:37.166Z,25.78
2022-11-16T20:20:11.875Z,25.78
2022-11-16T20:22:44.127Z,25.83
2022-11-16T20:25:16.549Z,25.88
2022-11-16T20:27:47.040Z,25.93
2022-11-16T20:30:21.629Z,25.98
2022-11-16T20:32:52.169Z,26.02
2022-11-16T20:35:25.963Z,26.06
2022-11-16T20:37:57.145Z,26.08
2022-11-16T20:40:29.242Z,26.10
2022-11-16T20:43:04.015Z,26.13
2022-11-16T20:45:36.480Z,26.16
2022-11-16T20:48:06.775Z,26.16
2022-11-16T20:50:39.580Z,26.19
2022-11-16T20:53:10.574Z,26.19
2022-11-16T20:55:43.030Z,26.19
2022-11-16T20:58:21.402Z,26.16
2022-11-16T21:00:54.259Z,26.12
2022-11-16T21:03:25.468Z,26.12
2022-11-16T21:05:59.839Z,26.11
2022-11-16T21:08:31.641Z,26.10
2022-11-16T21:11:12.792Z,26.08
2022-11-16T21:14:00.391Z,26.05
2022-11-16T21:16:31.706Z,26.03
2022-11-16T21:19:03.436Z,26.00
2022-11-16T21:21:36.696Z,25.99
2022-11-16T21:24:08.463Z,25.98
2022-11-16T21:26:40.123Z,25.98
2022-11-16T21:29:11.568Z,25.94
2022-11-16T21:31:42.742Z,25.93
2022-11-16T21:34:14.157Z,25.91
2022-11-16T21:36:47.878Z,25.88
2022-11-16T21:39:19.843Z,25.85
2022-11-16T21:41:51.018Z,25.83
2022-11-16T21:44:21.063Z,25.83
2022-11-16T21:46:51.104Z,25.85
2022-11-16T21:49:20.858Z,25.88
2022-11-16T21:51:53.743Z,25.87
2022-11-16T21:54:44.088Z,25.87
2022-11-16T21:57:17.716Z,25.87
2022-11-16T21:59:48.960Z,25.86
2022-11-16T22:02:19.741Z,25.83
2022-11-16T22:05:06.188Z,25.82
2022-11-16T22:07:51.622Z,25.81
2022-11-16T22:10:22.094Z,25.79
2022-11-16T22:12:53.734Z,25.78
2022-11-16T22:15:24.642Z,25.77
2022-11-16T22:17:57.291Z,25.75
2022-11-16T22:20:27.509Z,25.74
2022-11-16T22:23:00.757Z,25.73
2022-11-16T22:25:31.992Z,25.73
2022-11-16T22:28:21.251Z,25.73
2022-11-16T22:30:54.086Z,25.74
2022-11-16T22:33:24.735Z,25.75
2022-11-16T22:35:56.075Z,25.77
2022-11-16T22:38:28.523Z,25.80
2022-11-16T22:41:00.190Z,25.81
2022-11-16T22:43:33.592Z,25.82
2022-11-16T22:46:07.190Z,25.84
2022-11-16T22:48:42.415Z,25.84
2022-11-16T22:51:22.943Z,25.82
2022-11-16T22:54:00.096Z,25.81
2022-11-16T22:56:32.528Z,25.80
2022-11-16T22:59:07.004Z,25.79
2022-11-16T23:01:40.351Z,25.78
2022-11-16T23:04:11.922Z,25.76
2022-11-16T23:06:42.126Z,25.75
2022-11-16T23:09:14.347Z,25.74
2022-11-16T23:12:01.405Z,25.71
2022-11-16T23:14:49.090Z,25.66
2022-11-16T23:17:20.355Z,25.63
2022-11-16T23:20:19.417Z,25.61
2022-11-16T23:23:06.756Z,25.59
2022-11-16T23:25:56.343Z,25.57
2022-11-16T23:28:27.388Z,25.56
2022-11-16T23:30:57.549Z,25.55
2022-11-16T23:33:44.261Z,25.51
2022-11-16T23:36:17.396Z,25.48
2022-11-16T23:38:48.309Z,25.48
2022-11-16T23:41:37.779Z,25.49
2022-11-16T23:44:12.625Z,25.46
2022-11-16T23:46:43.605Z,25.45
2022-11-16T23:49:14.404Z,25.46
2022-11-16T23:51:45.474Z,25.44
2022-11-16T23:54:15.768Z,25.44
2022-11-16T23:56:49.291Z,25.43
2022-11-16T23:59:19.903Z,25.41
